Huvudsida
METAR-TAF:

METAR-TAF

Flygplatser :

Masjed-Suleyman, Iran

latitud: 31-59N, longitud: 049-16E, höjd: 372 m

Aktuellt väderrapport

Denna rapport gjordes för 24 minuter sedan, klockan 20:00 UTC
Vind 2 kt från sydost
Temperatur 18°C
Fuktighet 19%
Tryck 1016 hPa
Sikt 10 km eller mer
Inga moln under 1 500 m eller inga cumulonimbus

METAR: OIAI 112000Z 14002KT CAVOK 18/M06 Q1016

Tid: 23:54 (20:24 UTC)


TAF: saknas

Aktuella väderrapporter och prognoser från 4000 flygplatser (METAR- och TAF-rapporter).

De tillgängliga stationerna syns som gula och röda prickar på kartan.

För musen över prickarna för att se namnen på stationerna.

Klicka sedan för att få väderrapporter och prognoser.

För att ändra kartan: Klicka på de gröna knapparna med ett svart kors på för att zooma in; den gröna knappen med ett streck på för att zooma ut; eller på de gröna pilarna för angränsande kartor.


METAR-TAF: